This is the latest recevied weather packets stored in our database for station/object SQ5OUZ-1. If no packets are shown the sender has not sent any weather packets the latest 1 day(s).
| Time | Temp. | Humidity | Pressure | Rain* | Wind** | Luminosity | Snow |
|---|---|---|---|---|---|---|---|
| 1836274112 | 15° C | 86% | 1026 hPa | - | 0 m/s | - | - |
| 1836273958 | 15° C | 86% | 1026.1 hPa | - | 0 m/s | - | - |
| 1778022555 | 17.22° C | 37% | 1007.5 hPa | - | 0 m/s | - | - |
| 1778021652 | 17.22° C | 37% | 1007.6 hPa | - | 0 m/s | - | - |
| 1778020748 | 17.78° C | 36% | 1007.4 hPa | - | 0 m/s | - | - |
| 1778019844 | 17.78° C | 36% | 1007.5 hPa | - | 0 m/s | - | - |
| 1778018941 | 18.33° C | 35% | 1007.6 hPa | - | 0 m/s | - | - |
| 1778018038 | 18.89° C | 33% | 1007.7 hPa | - | 0 m/s | - | - |
| 1778017134 | 18.89° C | 33% | 1007.6 hPa | - | 0 m/s | - | - |
| 1778016231 | 18.89° C | 33% | 1007.6 hPa | - | 0 m/s | - | - |
| 1778015328 | 19.44° C | 31% | 1007.5 hPa | - | 0 m/s | - | - |
| 1778014422 | 20° C | 31% | 1007.5 hPa | - | 0 m/s | - | - |
| 1778013519 | 20° C | 30% | 1007.4 hPa | - | 0 m/s | - | - |
| 1778012616 | 20.56° C | 30% | 1007.4 hPa | - | 0 m/s | - | - |
| 1778011713 | 20.56° C | 30% | 1007.3 hPa | - | 0 m/s | - | - |
| 1778010809 | 21.11° C | 29% | 1007.1 hPa | - | 0 m/s | - | - |
| 1778009906 | 21.67° C | 28% | 1007.1 hPa | - | 0 m/s | - | - |
| 1778009003 | 22.22° C | 27% | 1007.2 hPa | - | 0 m/s | - | - |
| 1778008098 | 22.22° C | 27% | 1007.2 hPa | - | 0 m/s | - | - |
| 1778007195 | 22.22° C | 27% | 1007.2 hPa | - | 0 m/s | - | - |
| 1778006292 | 22.78° C | 26% | 1007.2 hPa | - | 0 m/s | - | - |
| 1778005389 | 22.78° C | 26% | 1007.2 hPa | - | 0 m/s | - | - |
| 1778004485 | 23.33° C | 24% | 1007.1 hPa | - | 0 m/s | - | - |
| 1778003582 | 23.89° C | 23% | 1007.1 hPa | - | 0 m/s | - | - |
| 1778002679 | 24.44° C | 23% | 1007.1 hPa | - | 0 m/s | - | - |
* Rain since midnight (hover to see other rain measurements)
** Current wind speed in m/s (hover to see current wind gust speed)